Stations météo

réclame
Mon MeteoGroup
Sint Katelijne-Waver, Belgique (6439): Température de l'air & dewpoint: 17.10.2018 22:00:00 - 23.10.2018 22:00:00 (CEST)Sint Katelijne-Waver, Belgique (6439): Vitesse du vent & gusts: 17.10.2018 22:00:00 - 23.10.2018 22:00:00 (CEST)Sint Katelijne-Waver, Belgique (6439): Direction du vent: 17.10.2018 22:00:00 - 23.10.2018 22:00:00 (CEST)Sint Katelijne-Waver, Belgique (6439): reduced air pressure: 17.10.2018 22:00:00 - 23.10.2018 22:00:00 (CEST)Sint Katelijne-Waver, Belgique (6439): Ensoleillement: 17.10.2018 22:00:00 - 23.10.2018 22:00:00 (CEST)Sint Katelijne-Waver, Belgique (6439): Quantités de précipitations: 17.10.2018 22:00:00 - 23.10.2018 22:00:00 (CEST)
Date & Time tt [°C] td [°C] ff [km/h] ff [knt] fx [km/h] fx [knt] dd ppp [hPa] sd [min] rr [mm]
23.10.2018 22:00:00 12,5 8,7 13 7 24 13 WSW 1026,2 0 0,0
23.10.2018 21:00:00 12,7 8,6 12 7 21 12 WSW 1026,3 0 0,0
23.10.2018 20:00:00 13,0 8,6 11 6 24 13 W 1026,2 0 0,0
23.10.2018 19:00:00 13,0 8,6 9 5 27 15 W 1026,1 0 0,0
23.10.2018 18:00:00 13,7 8,3 16 9 37 20 W 1025,8 0 0,0
23.10.2018 17:00:00 14,8 8,1 20 11 40 22 W 1025,8 36 0,0
23.10.2018 16:00:00 15,0 8,0 23 12 40 22 W 1026,2 48 0,0
23.10.2018 15:00:00 14,9 8,3 18 10 38 21 W 1025,9 36 0,0
23.10.2018 14:00:00 14,4 8,6 18 10 37 20 WSW 1026,1 53 0,0
23.10.2018 13:00:00 12,7 7,5 18 10 35 19 WSW 1027,1 60 0,0
23.10.2018 12:00:00 11,4 7,0 14 8 32 17 W 1028,1 43 0,0
23.10.2018 11:00:00 9,9 6,2 16 8 29 16 WSW 1028,3 1 0,0
23.10.2018 10:00:00 8,6 5,6 13 7 21 11 WSW 1028,6 0 0,0
23.10.2018 09:00:00 7,7 4,9 13 7 24 13 SW 1029,1 0 0,0
23.10.2018 08:00:00 7,6 4,8 14 8 24 13 SW 1029,0 0 0,0
23.10.2018 07:00:00 7,6 4,9 11 6 19 10 WSW 1029,9 0 0,0
23.10.2018 06:00:00 6,9 4,6 11 6 18 10 SW 1030,8 0 0,0
23.10.2018 05:00:00 6,5 4,3 9 5 14 7 SW 1031,7 0 0,0
23.10.2018 04:00:00 5,9 4,2 9 5 13 7 SW 1032,3 0 0,0
23.10.2018 03:00:00 5,5 4,6 8 4 12 6 SW 1033,4 0 0,0
23.10.2018 02:00:00 3,4 2,7 4 2 7 4 SSW 1034,3 0 0,0
23.10.2018 01:00:00 3,6 2,6 4 2 5 3 SSW 1034,5 0 0,0
23.10.2018 00:00:00 4,0 3,0 4 2 6 3 W 1035,6 0 0,0
22.10.2018 23:00:00 5,0 3,2 4 2 4 2 S 1035,1 0 0,0
22.10.2018 22:00:00 7,2 3,9 0 0 10 5 N 1035,2 0 0,0
22.10.2018 21:00:00 10,0 5,1 6 3 15 8 N 1035,3 0 0,0
22.10.2018 20:00:00 11,1 5,7 7 4 18 10 NNW 1034,8 0 0,0
22.10.2018 19:00:00 12,3 6,1 6 3 16 9 N 1034,3 0 0,0
22.10.2018 18:00:00 13,7 6,0 8 4 24 13 NNW 1034,0 32 0,0
22.10.2018 17:00:00 14,9 6,2 11 6 27 15 N 1033,5 57 0,0
22.10.2018 16:00:00 15,5 4,9 13 7 27 15 N 1033,5 48 0,0
22.10.2018 15:00:00 15,5 6,0 14 8 28 15 NNE 1033,5 45 0,0
22.10.2018 14:00:00 14,5 5,7 14 8 29 15 N 1033,5 24 0,0
22.10.2018 13:00:00 14,1 7,1 18 10 35 19 N 1033,5 49 0,0
22.10.2018 12:00:00 13,7 9,0 17 9 34 19 N 1033,2 13 0,0
22.10.2018 11:00:00 12,6 10,1 14 8 - - N 1032,8 - -
22.10.2018 10:00:00 13,0 10,7 12 6 22 12 N 1031,9 0 0,0
22.10.2018 09:00:00 12,8 11,1 14 8 27 15 N 1030,7 0 0,0
22.10.2018 08:00:00 12,9 11,9 11 6 24 13 N 1029,6 0 0,1
22.10.2018 07:00:00 13,3 12,4 10 5 24 13 N 1028,7 0 0,2
22.10.2018 06:00:00 12,4 11,8 7 4 11 6 NW 1028,1 0 0,0
22.10.2018 05:00:00 11,0 9,8 4 2 5 3 W 1027,8 0 0,0
22.10.2018 04:00:00 9,9 9,0 4 2 5 3 SW 1027,8 0 0,0
22.10.2018 03:00:00 9,5 8,0 4 2 5 3 SSW 1027,6 0 0,0
22.10.2018 02:00:00 9,1 7,9 4 2 4 2 S 1027,6 0 0,0
22.10.2018 01:00:00 9,5 8,1 0 0 4 2 N 1027,6 0 0,0
22.10.2018 00:00:00 9,5 8,0 0 0 4 2 N 1027,5 0 0,0
21.10.2018 23:00:00 9,5 8,4 0 0 8 4 N 1027,5 0 0,0
21.10.2018 22:00:00 8,0 6,7 0 0 1 1 N 1027,2 0 0,0
21.10.2018 21:00:00 8,9 6,8 4 2 4 2 SSE 1026,9 0 0,0
21.10.2018 20:00:00 10,3 7,3 0 0 3 2 N 1026,9 0 0,0
21.10.2018 19:00:00 12,7 7,9 0 0 4 2 N 1026,9 21 0,0
21.10.2018 18:00:00 15,6 7,7 4 2 6 3 NNE 1027,1 14 0,0
21.10.2018 17:00:00 16,4 7,4 4 2 8 5 S 1027,2 26 0,0
21.10.2018 16:00:00 16,1 7,0 5 3 11 6 S 1027,7 35 0,0
21.10.2018 15:00:00 15,8 7,7 7 4 14 8 E 1028,0 37 0,0
21.10.2018 14:00:00 14,8 7,5 7 4 9 5 E 1028,7 14 0,0
21.10.2018 13:00:00 14,3 7,7 6 3 11 6 SSE 1029,4 47 0,0
21.10.2018 12:00:00 12,6 7,5 6 3 9 5 ESE 1029,9 50 0,0
21.10.2018 11:00:00 10,2 8,0 0 0 4 2 N 1029,8 59 0,0
21.10.2018 10:00:00 7,0 6,4 4 2 5 3 NNW 1030,0 30 0,0
21.10.2018 09:00:00 3,9 3,4 4 2 7 4 N 1029,6 0 0,0
21.10.2018 08:00:00 3,9 3,4 4 2 6 3 E 1029,5 0 0,0
21.10.2018 07:00:00 3,6 3,0 4 2 5 3 SE 1029,7 0 0,0
21.10.2018 06:00:00 3,2 2,6 0 0 4 2 N 1029,9 0 0,0
21.10.2018 05:00:00 3,2 2,6 0 0 3 2 N 1030,2 0 0,0
21.10.2018 04:00:00 3,4 2,9 4 2 4 2 S 1030,4 0 0,0
21.10.2018 03:00:00 3,7 3,0 4 2 4 2 ESE 1030,8 0 0,0
21.10.2018 02:00:00 4,1 3,5 0 0 1 1 N 1031,1 0 0,0
21.10.2018 01:00:00 4,5 3,9 0 0 4 2 N 1031,4 0 0,0
21.10.2018 00:00:00 5,2 4,4 4 2 5 3 SSE 1031,4 0 0,0
20.10.2018 23:00:00 5,3 4,4 0 0 4 2 N 1031,7 0 0,0
20.10.2018 22:00:00 6,1 4,9 0 0 4 2 N 1031,7 0 0,0
20.10.2018 21:00:00 6,9 5,3 0 0 3 2 N 1031,5 0 0,0
20.10.2018 20:00:00 8,3 5,6 0 0 4 2 N 1031,6 0 0,0
20.10.2018 19:00:00 11,4 6,7 4 2 6 3 NNE 1031,3 32 0,0
20.10.2018 18:00:00 13,9 7,4 4 2 11 6 NE 1031,0 47 0,0
20.10.2018 17:00:00 14,6 6,5 6 3 13 7 NNE 1031,3 60 0,0
20.10.2018 16:00:00 14,4 6,7 4 2 10 5 NNE 1031,5 60 0,0
20.10.2018 15:00:00 14,2 6,5 6 4 13 7 ENE 1031,9 60 0,0
20.10.2018 14:00:00 13,8 6,4 7 4 13 7 ENE 1032,5 60 0,0
20.10.2018 13:00:00 13,0 7,2 4 2 9 5 E 1032,7 60 0,0
20.10.2018 12:00:00 12,0 7,7 5 3 8 4 ESE 1032,5 60 0,0
20.10.2018 11:00:00 9,4 8,0 0 0 4 2 N 1032,6 60 0,0
20.10.2018 10:00:00 7,1 6,6 0 0 6 3 N 1031,7 28 0,0
20.10.2018 09:00:00 3,9 3,3 0 0 5 3 N 1031,3 0 0,0
20.10.2018 08:00:00 3,6 3,1 0 0 4 2 N 1030,8 0 0,0
20.10.2018 07:00:00 3,5 3,0 4 2 5 3 N 1030,2 0 0,0
20.10.2018 06:00:00 3,7 3,1 0 0 1 1 N 1029,5 0 0,0
20.10.2018 05:00:00 4,2 3,7 4 2 5 3 SE 1029,1 0 0,0
20.10.2018 04:00:00 4,8 4,2 0 0 6 3 N 1028,8 0 0,0
20.10.2018 03:00:00 5,4 4,9 4 2 8 5 NNW 1028,9 0 0,0
20.10.2018 02:00:00 6,4 5,8 4 2 7 4 NNW 1028,5 0 0,0
20.10.2018 01:00:00 7,3 6,4 4 2 6 4 N 1028,1 0 0,0
20.10.2018 00:00:00 8,5 6,9 4 2 10 6 N 1028,0 0 0,0
19.10.2018 23:00:00 9,8 7,6 6 3 10 5 N 1027,6 0 0,0
19.10.2018 22:00:00 11,0 8,1 6 3 10 5 N 1027,1 0 0,0
19.10.2018 21:00:00 12,1 8,3 4 2 9 5 N 1026,5 0 0,0
19.10.2018 20:00:00 14,2 9,1 7 4 13 7 N 1025,8 0 0,0
19.10.2018 19:00:00 14,9 9,5 7 4 12 7 N 1025,3 0 0,0
19.10.2018 18:00:00 15,5 9,7 8 4 16 8 N 1024,6 0 0,0
19.10.2018 17:00:00 15,9 9,8 10 5 18 10 N 1024,6 16 0,0
19.10.2018 16:00:00 16,7 10,2 4 2 13 7 WNW 1024,6 60 0,0
19.10.2018 15:00:00 15,5 10,3 5 3 17 9 NE 1025,0 60 0,0
19.10.2018 14:00:00 14,2 10,1 4 2 17 9 E 1025,1 60 0,0
19.10.2018 13:00:00 13,2 9,8 6 4 14 7 NNE 1025,6 60 0,0
19.10.2018 12:00:00 11,8 9,1 8 5 13 7 ENE 1025,6 60 0,0
19.10.2018 11:00:00 11,1 8,8 9 5 14 8 ENE 1025,5 55 0,0
19.10.2018 10:00:00 10,4 8,2 8 4 11 6 ENE 1025,2 9 0,0
19.10.2018 09:00:00 9,5 7,6 4 2 9 5 NNE 1025,1 0 0,0
19.10.2018 08:00:00 10,3 7,8 4 2 15 8 NNE 1025,0 0 0,0
19.10.2018 07:00:00 11,4 8,1 10 5 16 8 NE 1024,7 0 0,0
19.10.2018 06:00:00 11,9 8,2 8 4 15 8 NE 1024,7 0 0,0
19.10.2018 05:00:00 12,2 8,3 6 3 11 6 NNE 1024,6 0 0,0
19.10.2018 04:00:00 12,4 8,5 5 3 11 6 NNE 1024,6 0 0,0
19.10.2018 03:00:00 12,5 8,5 8 4 15 8 NE 1024,5 0 0,0
19.10.2018 02:00:00 12,7 8,2 7 4 16 9 NE 1024,6 0 0,0
19.10.2018 01:00:00 13,1 8,2 9 5 13 7 NE 1025,0 0 0,0
19.10.2018 00:00:00 13,4 8,2 9 5 21 12 NE 1025,1 0 0,0
18.10.2018 23:00:00 13,7 8,3 10 6 24 13 NNE 1025,1 0 0,0
18.10.2018 22:00:00 13,9 8,5 11 6 22 12 N 1025,1 0 0,0
18.10.2018 21:00:00 14,2 8,9 9 5 16 9 N 1025,0 0 0,0
18.10.2018 20:00:00 14,7 9,2 7 4 16 9 NNE 1024,5 0 0,0
18.10.2018 19:00:00 15,1 9,6 8 5 16 9 NNE 1024,5 0 0,0
18.10.2018 18:00:00 15,5 9,6 10 5 22 12 NNE 1024,4 0 0,0
18.10.2018 17:00:00 16,1 9,9 12 6 22 12 NE 1024,4 0 0,0
18.10.2018 16:00:00 16,0 9,9 10 6 24 13 N 1024,6 0 0,0
18.10.2018 15:00:00 15,8 9,4 14 8 29 16 NNE 1024,8 - -
18.10.2018 14:00:00 16,2 9,8 14 8 - - NNE 1024,8 - -
18.10.2018 13:00:00 16,2 10,8 14 8 29 16 NNE 1025,0 - -
18.10.2018 12:00:00 15,5 11,2 14 8 25 14 NE 1025,1 - -
18.10.2018 11:00:00 14,0 11,5 13 7 23 13 NE 1024,8 59 0,0
18.10.2018 10:00:00 12,0 11,1 5 3 9 5 NNE 1024,6 40 0,0
18.10.2018 09:00:00 9,7 9,2 4 2 7 4 NNE 1024,0 0 0,0
18.10.2018 08:00:00 9,4 8,8 4 2 8 4 N 1023,9 0 0,0
18.10.2018 07:00:00 10,1 9,4 4 2 6 3 N 1023,5 0 0,0
18.10.2018 06:00:00 11,0 10,0 4 2 7 4 NNW 1023,2 0 0,0
18.10.2018 05:00:00 12,0 10,3 4 2 10 6 NNW 1023,0 0 0,0
18.10.2018 04:00:00 13,1 11,0 8 4 14 8 N 1023,0 0 0,0
18.10.2018 03:00:00 12,9 10,7 5 3 8 5 N 1022,8 0 0,0
18.10.2018 02:00:00 13,3 10,7 4 2 9 5 N 1022,7 0 0,0
18.10.2018 01:00:00 13,3 10,8 4 2 7 4 N 1022,6 0 0,0
18.10.2018 00:00:00 12,8 10,6 4 2 8 4 N 1022,4 0 0,0
17.10.2018 23:00:00 12,5 10,4 4 2 8 4 NNW 1021,9 0 0,0
17.10.2018 22:00:00 13,3 10,7 5 3 9 5 N 1021,7 0 0,0

tt = Température de l'air
td = dewpoint
ff = Vitesse du vent
fx = gusts
dd = Direction du vent
ppp = reduced air pressure
sd = Ensoleillement
rr = Quantités de précipitations

stations d'obs. à proximité